sensor_id;sensor_type;location;lat;lon;timestamp;temperature;humidity
6520;DHT22;3293;51.690;5.982;2023-07-08T00:01:22;20.20;56.60
6520;DHT22;3293;51.690;5.982;2023-07-08T00:06:27;20.10;56.10
6520;DHT22;3293;51.690;5.982;2023-07-08T00:11:29;20.10;56.50
6520;DHT22;3293;51.690;5.982;2023-07-08T00:16:29;20.10;57.70
6520;DHT22;3293;51.690;5.982;2023-07-08T00:21:29;20.00;57.90
6520;DHT22;3293;51.690;5.982;2023-07-08T00:26:30;19.90;57.70
6520;DHT22;3293;51.690;5.982;2023-07-08T00:31:30;19.90;58.10
6520;DHT22;3293;51.690;5.982;2023-07-08T00:36:31;19.90;57.70
6520;DHT22;3293;51.690;5.982;2023-07-08T00:41:37;19.90;58.20
6520;DHT22;3293;51.690;5.982;2023-07-08T00:46:58;19.80;58.90
6520;DHT22;3293;51.690;5.982;2023-07-08T00:52:23;19.70;59.00
6520;DHT22;3293;51.690;5.982;2023-07-08T00:57:27;19.70;60.00
6520;DHT22;3293;51.690;5.982;2023-07-08T01:02:29;19.60;60.30
6520;DHT22;3293;51.690;5.982;2023-07-08T01:07:30;19.50;61.90
6520;DHT22;3293;51.690;5.982;2023-07-08T01:12:36;19.40;63.50
6520;DHT22;3293;51.690;5.982;2023-07-08T01:17:36;19.50;63.60
6520;DHT22;3293;51.690;5.982;2023-07-08T01:22:37;19.40;64.30
6520;DHT22;3293;51.690;5.982;2023-07-08T01:27:52;19.40;64.50
6520;DHT22;3293;51.690;5.982;2023-07-08T01:32:57;19.40;65.10
6520;DHT22;3293;51.690;5.982;2023-07-08T01:38:00;19.40;66.00
6520;DHT22;3293;51.690;5.982;2023-07-08T01:43:02;19.30;66.70
6520;DHT22;3293;51.690;5.982;2023-07-08T01:48:05;19.20;68.80
6520;DHT22;3293;51.690;5.982;2023-07-08T01:53:17;19.20;69.20
6520;DHT22;3293;51.690;5.982;2023-07-08T01:58:18;19.10;70.10
6520;DHT22;3293;51.690;5.982;2023-07-08T02:03:18;19.00;71.90
6520;DHT22;3293;51.690;5.982;2023-07-08T02:08:19;18.90;72.90
6520;DHT22;3293;51.690;5.982;2023-07-08T02:13:20;18.80;74.40
6520;DHT22;3293;51.690;5.982;2023-07-08T02:18:20;18.70;75.40
6520;DHT22;3293;51.690;5.982;2023-07-08T02:23:25;18.60;78.20
6520;DHT22;3293;51.690;5.982;2023-07-08T02:28:25;18.40;80.30
6520;DHT22;3293;51.690;5.982;2023-07-08T02:33:24;18.30;81.20
6520;DHT22;3293;51.690;5.982;2023-07-08T02:38:27;18.30;80.90
6520;DHT22;3293;51.690;5.982;2023-07-08T02:43:27;18.30;81.70
6520;DHT22;3293;51.690;5.982;2023-07-08T02:48:27;18.30;81.80
6520;DHT22;3293;51.690;5.982;2023-07-08T02:53:28;18.10;83.30
6520;DHT22;3293;51.690;5.982;2023-07-08T02:58:28;18.00;85.50
6520;DHT22;3293;51.690;5.982;2023-07-08T03:03:28;17.80;86.60
6520;DHT22;3293;51.690;5.982;2023-07-08T03:08:29;17.80;87.60
6520;DHT22;3293;51.690;5.982;2023-07-08T03:13:30;17.80;87.90
6520;DHT22;3293;51.690;5.982;2023-07-08T03:18:30;17.70;89.00
6520;DHT22;3293;51.690;5.982;2023-07-08T03:23:30;17.80;89.10
6520;DHT22;3293;51.690;5.982;2023-07-08T03:28:30;17.70;90.00
6520;DHT22;3293;51.690;5.982;2023-07-08T03:33:30;17.60;90.40
6520;DHT22;3293;51.690;5.982;2023-07-08T03:38:30;17.50;90.80
6520;DHT22;3293;51.690;5.982;2023-07-08T03:43:30;17.50;90.90
6520;DHT22;3293;51.690;5.982;2023-07-08T03:48:30;17.40;91.60
6520;DHT22;3293;51.690;5.982;2023-07-08T03:53:30;17.40;91.60
6520;DHT22;3293;51.690;5.982;2023-07-08T03:58:30;17.40;92.00
6520;DHT22;3293;51.690;5.982;2023-07-08T04:03:30;17.40;92.00
6520;DHT22;3293;51.690;5.982;2023-07-08T04:08:30;17.40;92.30
6520;DHT22;3293;51.690;5.982;2023-07-08T04:13:31;17.50;92.00
6520;DHT22;3293;51.690;5.982;2023-07-08T04:18:31;17.50;92.00
6520;DHT22;3293;51.690;5.982;2023-07-08T04:23:31;17.60;92.10
6520;DHT22;3293;51.690;5.982;2023-07-08T04:28:31;17.60;92.10
6520;DHT22;3293;51.690;5.982;2023-07-08T04:33:33;17.80;91.70
6520;DHT22;3293;51.690;5.982;2023-07-08T04:38:33;18.30;90.30
6520;DHT22;3293;51.690;5.982;2023-07-08T04:43:36;18.60;87.10
6520;DHT22;3293;51.690;5.982;2023-07-08T04:48:36;18.60;86.20
6520;DHT22;3293;51.690;5.982;2023-07-08T04:53:36;18.70;86.10
6520;DHT22;3293;51.690;5.982;2023-07-08T04:58:36;18.80;87.00
6520;DHT22;3293;51.690;5.982;2023-07-08T05:03:36;19.00;84.70
6520;DHT22;3293;51.690;5.982;2023-07-08T05:08:36;19.50;80.10
6520;DHT22;3293;51.690;5.982;2023-07-08T05:13:36;20.80;68.60
6520;DHT22;3293;51.690;5.982;2023-07-08T05:18:36;22.60;51.20
6520;DHT22;3293;51.690;5.982;2023-07-08T05:23:38;23.80;43.50
6520;DHT22;3293;51.690;5.982;2023-07-08T05:28:38;24.90;36.30
6520;DHT22;3293;51.690;5.982;2023-07-08T05:33:38;26.30;29.50
6520;DHT22;3293;51.690;5.982;2023-07-08T05:38:38;26.90;27.70
6520;DHT22;3293;51.690;5.982;2023-07-08T05:43:38;27.90;24.50
6520;DHT22;3293;51.690;5.982;2023-07-08T05:48:38;29.30;22.50
6520;DHT22;3293;51.690;5.982;2023-07-08T05:53:39;29.90;19.70
6520;DHT22;3293;51.690;5.982;2023-07-08T05:58:39;30.50;18.00
6520;DHT22;3293;51.690;5.982;2023-07-08T06:03:39;30.30;19.10
6520;DHT22;3293;51.690;5.982;2023-07-08T06:08:40;31.60;16.30
6520;DHT22;3293;51.690;5.982;2023-07-08T06:13:40;29.90;18.70
6520;DHT22;3293;51.690;5.982;2023-07-08T06:18:40;27.50;24.30
6520;DHT22;3293;51.690;5.982;2023-07-08T06:23:40;28.10;23.80
6520;DHT22;3293;51.690;5.982;2023-07-08T06:28:42;29.10;21.20
6520;DHT22;3293;51.690;5.982;2023-07-08T06:33:42;30.50;19.60
6520;DHT22;3293;51.690;5.982;2023-07-08T06:38:42;31.50;16.90
6520;DHT22;3293;51.690;5.982;2023-07-08T06:43:43;31.10;17.60
6520;DHT22;3293;51.690;5.982;2023-07-08T06:48:43;31.40;18.30
6520;DHT22;3293;51.690;5.982;2023-07-08T06:53:43;32.40;15.30
6520;DHT22;3293;51.690;5.982;2023-07-08T06:58:43;33.50;14.50
6520;DHT22;3293;51.690;5.982;2023-07-08T07:03:43;33.90;13.50
6520;DHT22;3293;51.690;5.982;2023-07-08T07:08:44;31.70;15.40
6520;DHT22;3293;51.690;5.982;2023-07-08T07:13:46;31.30;16.80
6520;DHT22;3293;51.690;5.982;2023-07-08T07:18:47;30.90;17.00
6520;DHT22;3293;51.690;5.982;2023-07-08T07:23:47;31.20;17.10
6520;DHT22;3293;51.690;5.982;2023-07-08T07:28:47;32.30;16.00
6520;DHT22;3293;51.690;5.982;2023-07-08T07:33:48;33.10;14.00
6520;DHT22;3293;51.690;5.982;2023-07-08T07:38:48;33.40;13.30
6520;DHT22;3293;51.690;5.982;2023-07-08T07:43:48;34.10;12.30
6520;DHT22;3293;51.690;5.982;2023-07-08T07:48:48;34.20;12.30
6520;DHT22;3293;51.690;5.982;2023-07-08T07:53:48;34.90;11.80
6520;DHT22;3293;51.690;5.982;2023-07-08T07:58:47;35.20;10.80
6520;DHT22;3293;51.690;5.982;2023-07-08T08:03:49;35.00;11.80
6520;DHT22;3293;51.690;5.982;2023-07-08T08:08:52;35.70;10.00
6520;DHT22;3293;51.690;5.982;2023-07-08T08:13:53;35.10;9.80
6520;DHT22;3293;51.690;5.982;2023-07-08T08:18:53;35.10;9.80
6520;DHT22;3293;51.690;5.982;2023-07-08T08:23:53;35.90;10.20
6520;DHT22;3293;51.690;5.982;2023-07-08T08:28:53;36.60;9.30
6520;DHT22;3293;51.690;5.982;2023-07-08T08:33:53;36.40;7.90
6520;DHT22;3293;51.690;5.982;2023-07-08T08:38:53;36.50;8.60
6520;DHT22;3293;51.690;5.982;2023-07-08T08:43:53;36.70;7.10
6520;DHT22;3293;51.690;5.982;2023-07-08T08:49:02;36.60;7.30
6520;DHT22;3293;51.690;5.982;2023-07-08T08:54:04;36.30;7.70
6520;DHT22;3293;51.690;5.982;2023-07-08T08:59:18;36.60;8.30
6520;DHT22;3293;51.690;5.982;2023-07-08T09:04:32;37.10;7.80
6520;DHT22;3293;51.690;5.982;2023-07-08T09:09:40;37.90;6.90
6520;DHT22;3293;51.690;5.982;2023-07-08T09:14:42;38.60;5.10
6520;DHT22;3293;51.690;5.982;2023-07-08T09:24:59;39.20;4.40
6520;DHT22;3293;51.690;5.982;2023-07-08T09:30:01;39.40;4.10
6520;DHT22;3293;51.690;5.982;2023-07-08T09:35:06;39.30;3.60
6520;DHT22;3293;51.690;5.982;2023-07-08T09:40:31;39.30;4.10
6520;DHT22;3293;51.690;5.982;2023-07-08T09:45:41;38.60;4.80
6520;DHT22;3293;51.690;5.982;2023-07-08T09:50:44;37.80;5.60
6520;DHT22;3293;51.690;5.982;2023-07-08T09:55:45;37.30;6.40
6520;DHT22;3293;51.690;5.982;2023-07-08T10:00:51;36.80;7.80
6520;DHT22;3293;51.690;5.982;2023-07-08T10:05:55;35.40;9.60
6520;DHT22;3293;51.690;5.982;2023-07-08T10:16:33;34.60;11.40
6520;DHT22;3293;51.690;5.982;2023-07-08T10:27:12;33.40;13.00
6520;DHT22;3293;51.690;5.982;2023-07-08T10:48:16;32.70;13.50
6520;DHT22;3293;51.690;5.982;2023-07-08T10:58:58;32.50;13.30
6520;DHT22;3293;51.690;5.982;2023-07-08T11:04:42;32.80;14.70
6520;DHT22;3293;51.690;5.982;2023-07-08T11:09:56;32.90;13.90
6520;DHT22;3293;51.690;5.982;2023-07-08T11:15:28;33.00;13.50
6520;DHT22;3293;51.690;5.982;2023-07-08T11:20:37;33.20;12.70
6520;DHT22;3293;51.690;5.982;2023-07-08T11:25:41;33.20;12.90
6520;DHT22;3293;51.690;5.982;2023-07-08T11:30:43;33.40;11.50
6520;DHT22;3293;51.690;5.982;2023-07-08T11:35:52;33.50;9.90
6520;DHT22;3293;51.690;5.982;2023-07-08T11:41:02;33.30;12.10
6520;DHT22;3293;51.690;5.982;2023-07-08T11:46:06;33.40;11.20
6520;DHT22;3293;51.690;5.982;2023-07-08T11:51:08;33.50;11.80
6520;DHT22;3293;51.690;5.982;2023-07-08T12:01:32;33.20;11.80
6520;DHT22;3293;51.690;5.982;2023-07-08T12:06:42;33.00;10.90
6520;DHT22;3293;51.690;5.982;2023-07-08T12:11:53;33.10;11.10
6520;DHT22;3293;51.690;5.982;2023-07-08T12:16:55;33.00;9.40
6520;DHT22;3293;51.690;5.982;2023-07-08T12:21:55;33.10;9.90
6520;DHT22;3293;51.690;5.982;2023-07-08T12:26:55;32.90;9.60
6520;DHT22;3293;51.690;5.982;2023-07-08T12:31:56;33.00;8.70
6520;DHT22;3293;51.690;5.982;2023-07-08T12:36:56;33.00;7.90
6520;DHT22;3293;51.690;5.982;2023-07-08T12:41:57;33.00;8.60
6520;DHT22;3293;51.690;5.982;2023-07-08T12:47:01;33.00;8.20
6520;DHT22;3293;51.690;5.982;2023-07-08T12:52:03;32.90;8.60
6520;DHT22;3293;51.690;5.982;2023-07-08T12:57:03;33.00;8.30
6520;DHT22;3293;51.690;5.982;2023-07-08T13:02:07;33.20;8.50
6520;DHT22;3293;51.690;5.982;2023-07-08T13:07:22;33.20;8.50
6520;DHT22;3293;51.690;5.982;2023-07-08T13:12:23;33.20;8.50
6520;DHT22;3293;51.690;5.982;2023-07-08T13:17:24;33.20;7.20
6520;DHT22;3293;51.690;5.982;2023-07-08T13:22:25;33.20;7.70
6520;DHT22;3293;51.690;5.982;2023-07-08T13:27:26;33.20;7.60
6520;DHT22;3293;51.690;5.982;2023-07-08T13:32:31;33.10;7.40
6520;DHT22;3293;51.690;5.982;2023-07-08T13:37:31;33.10;7.70
6520;DHT22;3293;51.690;5.982;2023-07-08T13:42:31;33.10;7.70
6520;DHT22;3293;51.690;5.982;2023-07-08T13:47:31;33.10;8.20
6520;DHT22;3293;51.690;5.982;2023-07-08T13:52:31;33.10;7.70
6520;DHT22;3293;51.690;5.982;2023-07-08T13:57:38;33.10;8.00
6520;DHT22;3293;51.690;5.982;2023-07-08T14:02:43;33.00;8.60
6520;DHT22;3293;51.690;5.982;2023-07-08T14:07:44;33.00;9.10
6520;DHT22;3293;51.690;5.982;2023-07-08T14:12:44;33.30;8.90
6520;DHT22;3293;51.690;5.982;2023-07-08T14:17:44;33.30;9.40
6520;DHT22;3293;51.690;5.982;2023-07-08T14:22:46;33.30;8.90
6520;DHT22;3293;51.690;5.982;2023-07-08T14:27:46;33.20;9.20
6520;DHT22;3293;51.690;5.982;2023-07-08T14:32:46;33.40;8.10
6520;DHT22;3293;51.690;5.982;2023-07-08T14:37:46;33.40;8.10
6520;DHT22;3293;51.690;5.982;2023-07-08T14:42:48;33.40;7.40
6520;DHT22;3293;51.690;5.982;2023-07-08T14:47:51;33.50;7.00
6520;DHT22;3293;51.690;5.982;2023-07-08T14:52:51;33.40;8.30
6520;DHT22;3293;51.690;5.982;2023-07-08T14:57:51;33.40;9.00
6520;DHT22;3293;51.690;5.982;2023-07-08T15:02:52;33.30;8.20
6520;DHT22;3293;51.690;5.982;2023-07-08T15:07:57;33.20;8.50
6520;DHT22;3293;51.690;5.982;2023-07-08T15:12:59;33.40;8.60
6520;DHT22;3293;51.690;5.982;2023-07-08T15:18:00;33.70;8.80
6520;DHT22;3293;51.690;5.982;2023-07-08T15:23:02;33.90;7.80
6520;DHT22;3293;51.690;5.982;2023-07-08T15:28:03;33.90;6.90
6520;DHT22;3293;51.690;5.982;2023-07-08T15:33:07;33.80;7.70
6520;DHT22;3293;51.690;5.982;2023-07-08T15:38:07;33.70;8.50
6520;DHT22;3293;51.690;5.982;2023-07-08T15:43:12;33.60;8.80
6520;DHT22;3293;51.690;5.982;2023-07-08T15:48:15;33.30;9.60
6520;DHT22;3293;51.690;5.982;2023-07-08T15:53:15;33.20;10.10
6520;DHT22;3293;51.690;5.982;2023-07-08T16:03:30;33.30;8.90
6520;DHT22;3293;51.690;5.982;2023-07-08T16:08:30;33.40;10.70
6520;DHT22;3293;51.690;5.982;2023-07-08T16:13:34;33.30;11.30
6520;DHT22;3293;51.690;5.982;2023-07-08T16:18:35;33.20;11.80
6520;DHT22;3293;51.690;5.982;2023-07-08T16:23:36;33.20;12.10
6520;DHT22;3293;51.690;5.982;2023-07-08T16:28:42;33.20;12.30
6520;DHT22;3293;51.690;5.982;2023-07-08T16:33:44;33.10;12.90
6520;DHT22;3293;51.690;5.982;2023-07-08T16:38:44;33.00;14.30
6520;DHT22;3293;51.690;5.982;2023-07-08T16:43:45;32.80;15.10
6520;DHT22;3293;51.690;5.982;2023-07-08T16:48:45;32.80;16.20
6520;DHT22;3293;51.690;5.982;2023-07-08T16:53:45;32.80;17.00
6520;DHT22;3293;51.690;5.982;2023-07-08T16:58:45;32.80;18.10
6520;DHT22;3293;51.690;5.982;2023-07-08T17:03:45;32.90;16.90
6520;DHT22;3293;51.690;5.982;2023-07-08T17:08:46;33.20;17.50
6520;DHT22;3293;51.690;5.982;2023-07-08T17:13:46;33.10;15.20
6520;DHT22;3293;51.690;5.982;2023-07-08T17:18:50;33.00;17.60
6520;DHT22;3293;51.690;5.982;2023-07-08T17:23:52;32.80;17.40
6520;DHT22;3293;51.690;5.982;2023-07-08T17:28:52;32.70;18.00
6520;DHT22;3293;51.690;5.982;2023-07-08T17:33:55;32.50;19.10
6520;DHT22;3293;51.690;5.982;2023-07-08T17:38:57;32.30;18.30
6520;DHT22;3293;51.690;5.982;2023-07-08T17:43:57;32.20;19.50
6520;DHT22;3293;51.690;5.982;2023-07-08T17:48:59;32.00;20.00
6520;DHT22;3293;51.690;5.982;2023-07-08T17:53:59;31.80;20.10
6520;DHT22;3293;51.690;5.982;2023-07-08T17:58:59;31.70;20.70
6520;DHT22;3293;51.690;5.982;2023-07-08T18:04:00;31.70;21.50
6520;DHT22;3293;51.690;5.982;2023-07-08T18:09:00;31.50;21.90
6520;DHT22;3293;51.690;5.982;2023-07-08T18:14:00;31.40;22.90
6520;DHT22;3293;51.690;5.982;2023-07-08T18:19:00;31.30;24.20
6520;DHT22;3293;51.690;5.982;2023-07-08T18:24:00;31.10;25.70
6520;DHT22;3293;51.690;5.982;2023-07-08T18:29:00;31.00;26.70
6520;DHT22;3293;51.690;5.982;2023-07-08T18:34:03;30.80;26.70
6520;DHT22;3293;51.690;5.982;2023-07-08T18:39:04;30.60;27.90
6520;DHT22;3293;51.690;5.982;2023-07-08T18:44:07;30.40;28.90
6520;DHT22;3293;51.690;5.982;2023-07-08T18:49:11;30.10;31.40
6520;DHT22;3293;51.690;5.982;2023-07-08T18:54:19;29.90;33.50
6520;DHT22;3293;51.690;5.982;2023-07-08T18:59:20;29.70;36.20
6520;DHT22;3293;51.690;5.982;2023-07-08T19:04:25;29.40;39.90
6520;DHT22;3293;51.690;5.982;2023-07-08T19:09:27;29.10;41.80
6520;DHT22;3293;51.690;5.982;2023-07-08T19:14:27;28.90;41.90
6520;DHT22;3293;51.690;5.982;2023-07-08T19:19:30;28.80;43.30
6520;DHT22;3293;51.690;5.982;2023-07-08T19:24:29;28.60;45.00
6520;DHT22;3293;51.690;5.982;2023-07-08T19:29:29;28.40;47.00
6520;DHT22;3293;51.690;5.982;2023-07-08T19:34:29;28.20;46.20
6520;DHT22;3293;51.690;5.982;2023-07-08T19:39:30;28.10;48.10
6520;DHT22;3293;51.690;5.982;2023-07-08T19:44:29;27.90;48.80
6520;DHT22;3293;51.690;5.982;2023-07-08T19:49:30;27.70;52.50
6520;DHT22;3293;51.690;5.982;2023-07-08T19:54:29;27.60;54.40
6520;DHT22;3293;51.690;5.982;2023-07-08T19:59:29;27.40;57.60
6520;DHT22;3293;51.690;5.982;2023-07-08T20:04:30;27.20;63.10
6520;DHT22;3293;51.690;5.982;2023-07-08T20:09:31;27.10;67.40
6520;DHT22;3293;51.690;5.982;2023-07-08T20:14:31;27.00;71.80
6520;DHT22;3293;51.690;5.982;2023-07-08T20:19:31;26.80;76.50
6520;DHT22;3293;51.690;5.982;2023-07-08T20:24:31;26.60;74.70
6520;DHT22;3293;51.690;5.982;2023-07-08T20:29:32;26.40;75.20
6520;DHT22;3293;51.690;5.982;2023-07-08T20:34:32;26.30;77.90
6520;DHT22;3293;51.690;5.982;2023-07-08T20:39:32;26.20;79.90
6520;DHT22;3293;51.690;5.982;2023-07-08T20:44:33;26.00;82.60
6520;DHT22;3293;51.690;5.982;2023-07-08T20:49:35;25.90;86.60
6520;DHT22;3293;51.690;5.982;2023-07-08T20:54:35;25.70;89.10
6520;DHT22;3293;51.690;5.982;2023-07-08T20:59:35;25.60;90.20
6520;DHT22;3293;51.690;5.982;2023-07-08T21:04:36;25.40;90.90
6520;DHT22;3293;51.690;5.982;2023-07-08T21:09:36;25.30;91.30
6520;DHT22;3293;51.690;5.982;2023-07-08T21:14:36;25.10;90.90
6520;DHT22;3293;51.690;5.982;2023-07-08T21:19:37;25.00;91.70
6520;DHT22;3293;51.690;5.982;2023-07-08T21:24:38;24.90;93.40
6520;DHT22;3293;51.690;5.982;2023-07-08T21:29:38;24.80;93.70
6520;DHT22;3293;51.690;5.982;2023-07-08T21:34:38;24.70;93.60
6520;DHT22;3293;51.690;5.982;2023-07-08T21:39:39;24.80;93.60
6520;DHT22;3293;51.690;5.982;2023-07-08T21:44:41;24.70;92.70
6520;DHT22;3293;51.690;5.982;2023-07-08T21:49:42;24.70;91.90
6520;DHT22;3293;51.690;5.982;2023-07-08T21:54:43;24.50;92.50
6520;DHT22;3293;51.690;5.982;2023-07-08T21:59:44;24.30;93.00
6520;DHT22;3293;51.690;5.982;2023-07-08T22:04:45;24.20;93.60
6520;DHT22;3293;51.690;5.982;2023-07-08T22:09:45;24.10;94.50
6520;DHT22;3293;51.690;5.982;2023-07-08T22:14:46;24.00;94.60
6520;DHT22;3293;51.690;5.982;2023-07-08T22:19:46;24.00;95.80
6520;DHT22;3293;51.690;5.982;2023-07-08T22:24:46;23.90;94.70
6520;DHT22;3293;51.690;5.982;2023-07-08T22:29:46;23.90;94.90
6520;DHT22;3293;51.690;5.982;2023-07-08T22:34:46;23.80;95.10
6520;DHT22;3293;51.690;5.982;2023-07-08T22:39:46;23.80;96.10
6520;DHT22;3293;51.690;5.982;2023-07-08T22:44:45;23.60;96.40
6520;DHT22;3293;51.690;5.982;2023-07-08T22:49:45;23.60;97.10
6520;DHT22;3293;51.690;5.982;2023-07-08T22:54:46;23.50;97.30
6520;DHT22;3293;51.690;5.982;2023-07-08T22:59:46;23.50;97.00
6520;DHT22;3293;51.690;5.982;2023-07-08T23:04:46;23.50;97.20
6520;DHT22;3293;51.690;5.982;2023-07-08T23:09:46;23.40;97.40
6520;DHT22;3293;51.690;5.982;2023-07-08T23:14:46;23.40;97.60
6520;DHT22;3293;51.690;5.982;2023-07-08T23:19:46;23.50;98.70
6520;DHT22;3293;51.690;5.982;2023-07-08T23:24:47;23.40;97.70
6520;DHT22;3293;51.690;5.982;2023-07-08T23:29:47;23.30;97.90
6520;DHT22;3293;51.690;5.982;2023-07-08T23:34:47;23.20;97.90
6520;DHT22;3293;51.690;5.982;2023-07-08T23:39:47;23.10;97.70
6520;DHT22;3293;51.690;5.982;2023-07-08T23:44:48;23.10;97.80
6520;DHT22;3293;51.690;5.982;2023-07-08T23:49:48;23.20;98.20
6520;DHT22;3293;51.690;5.982;2023-07-08T23:54:48;23.10;97.30
6520;DHT22;3293;51.690;5.982;2023-07-08T23:59:57;23.00;97.80
